createdAt,value
2023-02-11T00:00:23.524Z,100408.88
2023-02-11T00:03:10.371Z,100404.56
2023-02-11T00:05:37.545Z,100403.72
2023-02-11T00:08:04.398Z,100391.19
2023-02-11T00:10:31.497Z,100392.13
2023-02-11T00:12:58.278Z,100388.59
2023-02-11T00:15:25.332Z,100374.34
2023-02-11T00:17:52.087Z,100381.44
2023-02-11T00:20:19.309Z,100388.66
2023-02-11T00:22:46.099Z,100393.16
2023-02-11T00:25:13.144Z,100395.06
2023-02-11T00:27:39.909Z,100389.63
2023-02-11T00:30:07.541Z,100392.47
2023-02-11T00:32:34.356Z,100389.91
2023-02-11T00:35:01.461Z,100396.13
2023-02-11T00:37:28.289Z,100390.78
2023-02-11T00:39:55.353Z,100392.63
2023-02-11T00:42:22.100Z,100393.56
2023-02-11T00:44:49.144Z,100386.47
2023-02-11T00:47:15.883Z,100373.00
2023-02-11T00:49:42.953Z,100359.75
2023-02-11T00:52:09.737Z,100354.50
2023-02-11T00:54:36.777Z,100352.72
2023-02-11T00:57:03.612Z,100341.38
2023-02-11T00:59:30.670Z,100335.88
2023-02-11T01:01:57.405Z,100322.69
2023-02-11T01:04:24.546Z,100319.88
2023-02-11T01:06:51.318Z,100306.69
2023-02-11T01:09:18.477Z,100296.88
2023-02-11T01:11:45.273Z,100295.88
2023-02-11T01:14:12.382Z,100292.44
2023-02-11T01:16:39.203Z,100294.16
2023-02-11T01:19:06.336Z,100290.75
2023-02-11T01:21:33.087Z,100296.13
2023-02-11T01:24:00.141Z,100292.50
2023-02-11T01:26:26.896Z,100293.56
2023-02-11T01:28:54.042Z,100295.28
2023-02-11T01:31:20.827Z,100285.50
2023-02-11T01:33:49.197Z,100274.06
2023-02-11T01:36:15.988Z,100272.25
2023-02-11T01:38:44.486Z,100266.81
2023-02-11T01:41:12.430Z,100265.13
2023-02-11T01:43:41.766Z,100266.09
2023-02-11T01:46:17.944Z,100272.28
2023-02-11T01:48:47.883Z,100266.81
2023-02-11T01:51:18.498Z,100265.13
2023-02-11T01:54:04.250Z,100248.34
2023-02-11T01:56:49.506Z,100261.69
2023-02-11T01:59:24.791Z,100262.50
2023-02-11T02:01:56.460Z,100253.72
2023-02-11T02:04:23.580Z,100240.53
2023-02-11T02:06:52.271Z,100235.09
2023-02-11T02:09:24.004Z,100232.38
2023-02-11T02:11:51.011Z,100224.41
2023-02-11T02:14:18.151Z,100213.66
2023-02-11T02:16:44.913Z,100200.41
2023-02-11T02:19:46.221Z,100198.72
2023-02-11T02:22:50.362Z,100189.03
2023-02-11T02:25:27.148Z,100182.75
2023-02-11T02:28:14.692Z,100167.66
2023-02-11T02:31:09.694Z,100164.16
2023-02-11T02:33:46.911Z,100169.50
2023-02-11T02:36:39.319Z,100162.34
2023-02-11T02:39:12.085Z,100166.91
2023-02-11T02:41:39.130Z,100165.00
2023-02-11T02:44:05.912Z,100161.44
2023-02-11T02:46:33.714Z,100160.66
2023-02-11T02:49:00.711Z,100160.78
2023-02-11T02:51:27.711Z,100151.91
2023-02-11T02:54:31.226Z,100134.22
2023-02-11T02:57:22.477Z,100136.63
2023-02-11T03:00:11.072Z,100134.91
2023-02-11T03:02:50.237Z,100143.88
2023-02-11T03:05:31.157Z,100144.69
2023-02-11T03:07:58.249Z,100142.97
2023-02-11T03:10:27.491Z,100143.78
2023-02-11T03:12:54.593Z,100140.22
2023-02-11T03:15:21.360Z,100144.69
2023-02-11T03:17:49.675Z,100144.59
2023-02-11T03:20:17.575Z,100133.94
2023-02-11T03:23:07.399Z,100136.66
2023-02-11T03:26:05.181Z,100134.91
2023-02-11T03:28:35.706Z,100143.72
2023-02-11T03:31:20.636Z,100140.19
2023-02-11T03:34:16.784Z,100136.59
2023-02-11T03:36:55.999Z,100125.09
2023-02-11T03:39:29.822Z,100115.38
2023-02-11T03:41:56.639Z,100115.41
2023-02-11T03:44:23.704Z,100116.28
2023-02-11T03:46:50.944Z,100102.97
2023-02-11T03:49:20.273Z,100102.19
2023-02-11T03:51:47.631Z,100083.44
2023-02-11T03:54:16.131Z,100062.94
2023-02-11T03:56:49.133Z,100061.16
2023-02-11T03:59:16.171Z,100051.31
2023-02-11T04:01:42.975Z,100049.69
2023-02-11T04:04:10.101Z,100040.72
2023-02-11T04:06:36.886Z,100032.69
2023-02-11T04:09:04.112Z,100037.09
2023-02-11T04:11:30.850Z,100039.81
2023-02-11T04:13:57.883Z,100037.16
2023-02-11T04:16:24.717Z,100026.56
2023-02-11T04:18:51.815Z,100013.34
2023-02-11T04:21:18.880Z,100015.81
2023-02-11T04:23:45.933Z,100020.38
2023-02-11T04:26:12.661Z,100030.06
2023-02-11T04:28:39.737Z,100025.56
2023-02-11T04:31:06.630Z,100019.28
2023-02-11T04:33:33.831Z,100014.94
2023-02-11T04:36:00.610Z,100022.88
2023-02-11T04:38:27.714Z,100015.78
2023-02-11T04:40:54.487Z,100019.47
2023-02-11T04:43:21.502Z,100014.03
2023-02-11T04:45:48.682Z,100015.78
2023-02-11T04:48:15.966Z,100021.19
2023-02-11T04:50:42.692Z,100013.22
2023-02-11T04:53:09.755Z,100016.78
2023-02-11T04:55:36.493Z,100014.88
2023-02-11T04:58:03.598Z,100017.53
2023-02-11T05:00:30.317Z,99998.06
2023-02-11T05:02:57.390Z,100009.59
2023-02-11T05:05:24.254Z,100021.13
2023-02-11T05:07:51.704Z,100026.44
2023-02-11T05:10:18.504Z,100033.53
2023-02-11T05:12:47.655Z,100020.25
2023-02-11T05:15:14.423Z,100025.41
2023-02-11T05:17:41.460Z,100020.22
2023-02-11T05:20:08.779Z,100017.50
2023-02-11T05:22:35.892Z,100005.88
2023-02-11T05:25:02.626Z,100004.22
2023-02-11T05:27:29.687Z,99994.47
2023-02-11T05:29:56.500Z,99995.38
2023-02-11T05:32:23.549Z,99996.28
2023-02-11T05:34:50.397Z,99995.38
2023-02-11T05:37:17.492Z,100004.28
2023-02-11T05:39:44.306Z,100010.47
2023-02-11T05:42:11.343Z,100019.38
2023-02-11T05:44:38.268Z,100017.56
2023-02-11T05:47:05.377Z,100014.03
2023-02-11T05:49:32.118Z,100025.50
2023-02-11T05:51:59.178Z,100024.53
2023-02-11T05:54:25.887Z,100026.31
2023-02-11T05:56:52.974Z,100029.06
2023-02-11T05:59:19.734Z,100032.50
2023-02-11T06:01:46.842Z,100024.66
2023-02-11T06:04:13.587Z,100016.50
2023-02-11T06:06:40.657Z,100012.16
2023-02-11T06:09:07.422Z,100010.34
2023-02-11T06:11:34.517Z,100011.16
2023-02-11T06:14:01.461Z,99992.69
2023-02-11T06:16:28.628Z,99996.06
2023-02-11T06:18:55.406Z,99985.47
2023-02-11T06:21:23.887Z,99984.50
2023-02-11T06:23:51.819Z,99980.94
2023-02-11T06:26:21.523Z,99979.97
2023-02-11T06:28:48.350Z,99977.34
2023-02-11T06:31:15.751Z,99970.25
2023-02-11T06:33:42.590Z,99970.28
2023-02-11T06:36:15.213Z,99976.47
2023-02-11T06:38:42.034Z,99986.28
2023-02-11T06:41:11.099Z,99985.28
2023-02-11T06:43:37.879Z,99984.53
2023-02-11T06:46:05.116Z,99980.13
2023-02-11T06:48:31.882Z,99990.78
2023-02-11T06:51:05.166Z,99993.41
2023-02-11T06:53:32.558Z,100000.47
2023-02-11T06:56:06.590Z,99987.13
2023-02-11T06:58:33.616Z,99988.84
2023-02-11T07:01:02.258Z,99981.69
2023-02-11T07:03:29.051Z,99998.56
2023-02-11T07:05:56.169Z,99998.53
2023-02-11T07:08:22.928Z,100002.13
2023-02-11T07:10:49.988Z,100003.00
2023-02-11T07:13:16.757Z,100005.63
2023-02-11T07:15:43.995Z,99993.19
2023-02-11T07:18:13.005Z,99992.19
2023-02-11T07:20:41.380Z,99991.47
2023-02-11T07:23:08.104Z,99992.19
2023-02-11T07:25:35.493Z,99987.66
2023-02-11T07:28:03.379Z,99983.16
2023-02-11T07:30:30.504Z,99979.81
2023-02-11T07:32:57.292Z,99969.00
2023-02-11T07:35:24.376Z,99970.88
2023-02-11T07:37:51.116Z,99973.38
2023-02-11T07:40:18.318Z,99965.25
2023-02-11T07:42:45.054Z,99965.34
2023-02-11T07:45:13.836Z,99949.34
2023-02-11T07:47:42.736Z,99939.53
2023-02-11T07:50:10.203Z,99940.41
2023-02-11T07:52:36.978Z,99939.44
2023-02-11T07:55:04.992Z,99938.56
2023-02-11T07:57:32.365Z,99930.72
2023-02-11T07:59:59.481Z,99923.56
2023-02-11T08:02:26.298Z,99934.16
2023-02-11T08:04:53.423Z,99943.03
2023-02-11T08:07:20.246Z,99941.22
2023-02-11T08:09:47.489Z,99944.66
2023-02-11T08:12:14.279Z,99948.16
2023-02-11T08:14:41.297Z,99947.13
2023-02-11T08:17:08.022Z,99942.66
2023-02-11T08:19:35.438Z,99946.13
2023-02-11T08:22:02.316Z,99943.41
2023-02-11T08:24:29.373Z,99939.78
2023-02-11T08:26:56.407Z,99940.69
2023-02-11T08:29:23.458Z,99952.16
2023-02-11T08:31:50.465Z,99940.56
2023-02-11T08:34:20.555Z,99951.91
2023-02-11T08:36:47.567Z,99956.31
2023-02-11T08:39:19.723Z,99964.03
2023-02-11T08:41:49.609Z,99957.88
2023-02-11T08:44:17.962Z,99957.72
2023-02-11T08:46:44.804Z,99947.84
2023-02-11T08:49:11.929Z,99936.13
2023-02-11T08:51:38.747Z,99931.59
2023-02-11T08:54:09.499Z,99942.22
2023-02-11T08:56:37.295Z,99928.84
2023-02-11T08:59:04.726Z,99926.06
2023-02-11T09:01:31.814Z,99926.00
2023-02-11T09:03:59.137Z,99931.19
2023-02-11T09:06:26.713Z,99926.56
2023-02-11T09:08:54.903Z,99919.47
2023-02-11T09:11:24.948Z,99926.72
2023-02-11T09:13:54.307Z,99933.78
2023-02-11T09:16:23.070Z,99933.66
2023-02-11T09:18:50.499Z,99953.03
2023-02-11T09:21:17.466Z,99948.44
2023-02-11T09:23:44.943Z,99958.00
2023-02-11T09:26:17.353Z,99964.16
2023-02-11T09:28:44.499Z,99970.34
2023-02-11T09:31:13.681Z,99986.13
2023-02-11T09:33:47.950Z,99973.75
2023-02-11T09:36:31.516Z,99980.94
2023-02-11T09:38:59.888Z,99989.41
2023-02-11T09:41:42.295Z,99990.34
2023-02-11T09:44:17.629Z,99983.97
2023-02-11T09:46:45.473Z,99983.72
2023-02-11T09:49:18.194Z,99984.56
2023-02-11T09:52:02.580Z,99977.44
2023-02-11T09:55:03.140Z,99968.50
2023-02-11T09:57:35.167Z,99971.84
2023-02-11T10:00:08.144Z,99968.16
2023-02-11T10:03:12.689Z,99971.72
2023-02-11T10:05:54.791Z,99958.28
2023-02-11T10:08:33.391Z,99947.47
2023-02-11T10:11:04.711Z,99948.19
2023-02-11T10:13:44.032Z,99940.00
2023-02-11T10:16:26.376Z,99948.66
2023-02-11T10:19:22.369Z,99937.09
2023-02-11T10:21:52.862Z,99937.06
2023-02-11T10:24:19.597Z,99925.31
2023-02-11T10:26:46.713Z,99924.22
2023-02-11T10:29:42.220Z,99909.81
2023-02-11T10:32:38.754Z,99892.88
2023-02-11T10:35:15.192Z,99870.50
2023-02-11T10:37:44.470Z,99861.44
2023-02-11T10:40:19.267Z,99839.09
2023-02-11T10:42:48.905Z,99827.41
2023-02-11T10:45:46.756Z,99813.16
2023-02-11T10:48:35.634Z,99809.59
2023-02-11T10:51:25.247Z,99796.28
2023-02-11T10:54:04.662Z,99786.25
2023-02-11T10:56:32.977Z,99780.84
2023-02-11T10:59:14.587Z,99776.34
2023-02-11T11:01:45.311Z,99787.25
2023-02-11T11:04:31.097Z,99793.28
2023-02-11T11:07:09.791Z,99779.41
2023-02-11T11:09:49.305Z,99797.88
2023-02-11T11:12:30.756Z,99803.97
2023-02-11T11:14:59.876Z,99799.22
2023-02-11T11:17:29.197Z,99805.34
2023-02-11T11:20:16.973Z,99815.94
2023-02-11T11:22:43.911Z,99815.03
2023-02-11T11:25:24.912Z,99805.25
2023-02-11T11:27:52.702Z,99802.28
2023-02-11T11:30:19.967Z,99795.88
2023-02-11T11:32:46.807Z,99797.50
2023-02-11T11:35:30.426Z,99803.84
2023-02-11T11:38:01.759Z,99800.09
2023-02-11T11:40:30.779Z,99782.16
2023-02-11T11:43:04.902Z,99771.63
2023-02-11T11:45:32.078Z,99774.81
2023-02-11T11:48:01.336Z,99782.00
2023-02-11T11:50:40.488Z,99774.69
2023-02-11T11:53:31.575Z,99785.25
2023-02-11T11:56:05.538Z,99786.94
2023-02-11T11:58:32.912Z,99782.44
2023-02-11T12:01:03.006Z,99801.22
2023-02-11T12:03:45.006Z,99801.84
2023-02-11T12:06:21.357Z,99805.38
2023-02-11T12:09:05.101Z,99809.75
2023-02-11T12:12:09.914Z,99816.88
2023-02-11T12:14:58.560Z,99818.66
2023-02-11T12:17:47.375Z,99813.25
2023-02-11T12:20:32.024Z,99823.81
2023-02-11T12:23:14.599Z,99815.63
2023-02-11T12:25:51.713Z,99819.97
2023-02-11T12:28:55.944Z,99801.38
2023-02-11T12:31:44.213Z,99800.38
2023-02-11T12:34:46.915Z,99811.75
2023-02-11T12:37:31.796Z,99802.81
2023-02-11T12:40:21.864Z,99810.72
2023-02-11T12:43:17.425Z,99802.69
2023-02-11T12:45:49.568Z,99792.16
2023-02-11T12:48:39.705Z,99787.53
2023-02-11T12:51:25.599Z,99788.56
2023-02-11T12:53:52.327Z,99777.97
2023-02-11T12:56:52.963Z,99774.69
2023-02-11T12:59:29.298Z,99767.72
2023-02-11T13:01:56.511Z,99761.09
2023-02-11T13:04:43.381Z,99737.25
2023-02-11T13:07:23.633Z,99727.16
2023-02-11T13:09:58.498Z,99730.31
2023-02-11T13:12:44.250Z,99722.44
2023-02-11T13:15:14.134Z,99702.34
2023-02-11T13:17:55.533Z,99721.66
2023-02-11T13:20:33.643Z,99727.28
2023-02-11T13:23:25.980Z,99735.66
2023-02-11T13:26:00.285Z,99727.47
2023-02-11T13:28:40.313Z,99721.19
2023-02-11T13:31:07.812Z,99740.91
2023-02-11T13:33:45.908Z,99738.94
2023-02-11T13:36:14.673Z,99753.31
2023-02-11T13:38:41.863Z,99748.03
2023-02-11T13:41:40.997Z,99746.38
2023-02-11T13:44:11.201Z,99735.72
2023-02-11T13:46:58.282Z,99721.31
2023-02-11T13:49:32.679Z,99688.28
2023-02-11T13:52:00.104Z,99668.81
2023-02-11T13:54:47.908Z,99662.59
2023-02-11T13:57:20.932Z,99675.63
2023-02-11T13:59:51.840Z,99683.00
2023-02-11T14:02:41.320Z,99673.28
2023-02-11T14:05:27.029Z,99670.63
2023-02-11T14:08:30.588Z,99667.94
2023-02-11T14:10:58.304Z,99675.03
2023-02-11T14:13:51.520Z,99682.41
2023-02-11T14:16:36.363Z,99692.97
2023-02-11T14:19:04.515Z,99689.56
2023-02-11T14:21:36.270Z,99692.09
2023-02-11T14:24:04.948Z,99694.69
2023-02-11T14:26:58.413Z,99686.72
2023-02-11T14:29:44.037Z,99680.44
2023-02-11T14:32:30.373Z,99676.97
2023-02-11T14:35:05.875Z,99676.03
2023-02-11T14:37:57.388Z,99685.13
2023-02-11T14:40:30.192Z,99681.53
2023-02-11T14:42:57.423Z,99678.75
2023-02-11T14:45:27.377Z,99689.28
2023-02-11T14:48:15.537Z,99700.94
2023-02-11T14:50:53.469Z,99694.56
2023-02-11T14:53:22.763Z,99711.63
2023-02-11T14:55:52.465Z,99708.91
2023-02-11T14:58:24.302Z,99721.13
2023-02-11T15:01:01.146Z,99722.13
2023-02-11T15:03:39.506Z,99713.16
2023-02-11T15:06:20.648Z,99725.75
2023-02-11T15:09:29.992Z,99723.19
2023-02-11T15:11:56.826Z,99724.13
2023-02-11T15:14:29.514Z,99721.38
2023-02-11T15:17:04.032Z,99731.28
2023-02-11T15:19:34.666Z,99725.94
2023-02-11T15:22:04.759Z,99736.59
2023-02-11T15:24:39.394Z,99743.75
2023-02-11T15:27:12.791Z,99744.63
2023-02-11T15:29:42.735Z,99760.53
2023-02-11T15:32:09.640Z,99761.41
2023-02-11T15:34:37.256Z,99756.78
2023-02-11T15:37:04.502Z,99764.94
2023-02-11T15:39:41.036Z,99766.69
2023-02-11T15:42:21.236Z,99767.50
2023-02-11T15:44:56.407Z,99781.94
2023-02-11T15:47:29.330Z,99784.75
2023-02-11T15:49:56.500Z,99783.94
2023-02-11T15:52:24.987Z,99787.50
2023-02-11T15:54:52.543Z,99788.41
2023-02-11T15:57:19.382Z,99783.94
2023-02-11T15:59:48.476Z,99783.88
2023-02-11T16:02:16.956Z,99783.06
2023-02-11T16:05:27.235Z,99781.22
2023-02-11T16:07:54.102Z,99782.00
2023-02-11T16:10:28.319Z,99784.75
2023-02-11T16:13:07.250Z,99784.75
2023-02-11T16:15:34.363Z,99796.44
2023-02-11T16:18:02.162Z,99806.16
2023-02-11T16:20:29.273Z,99809.69
2023-02-11T16:22:56.066Z,99812.38
2023-02-11T16:25:23.247Z,99801.84
2023-02-11T16:27:52.085Z,99802.06
2023-02-11T16:30:26.408Z,99801.16
2023-02-11T16:32:54.131Z,99808.16
2023-02-11T16:35:21.173Z,99807.47
2023-02-11T16:37:48.031Z,99809.97
2023-02-11T16:40:15.314Z,99801.09
2023-02-11T16:42:42.132Z,99809.19
2023-02-11T16:45:09.721Z,99818.06
2023-02-11T16:47:40.936Z,99813.50
2023-02-11T16:50:12.421Z,99807.13
2023-02-11T16:52:39.195Z,99813.44
2023-02-11T16:55:06.459Z,99810.84
2023-02-11T16:57:33.309Z,99813.56
2023-02-11T17:00:00.442Z,99815.31
2023-02-11T17:02:31.911Z,99812.72
2023-02-11T17:05:00.843Z,99810.94
2023-02-11T17:07:27.862Z,99824.28
2023-02-11T17:09:54.945Z,99816.19
2023-02-11T17:12:21.871Z,99818.25
2023-02-11T17:14:48.933Z,99820.72
2023-02-11T17:17:16.020Z,99823.47
2023-02-11T17:19:43.174Z,99819.91
2023-02-11T17:22:10.792Z,99819.09
2023-02-11T17:24:38.004Z,99825.25
2023-02-11T17:27:04.853Z,99819.78
2023-02-11T17:29:31.954Z,99815.56
2023-02-11T17:31:58.756Z,99829.84
2023-02-11T17:34:25.877Z,99828.94
2023-02-11T17:36:52.730Z,99829.75
2023-02-11T17:39:21.079Z,99827.94
2023-02-11T17:41:48.078Z,99826.19
2023-02-11T17:44:16.517Z,99833.28
2023-02-11T17:46:43.616Z,99838.78
2023-02-11T17:49:11.722Z,99830.66
2023-02-11T17:51:39.289Z,99829.75
2023-02-11T17:54:17.268Z,99828.94
2023-02-11T17:56:44.251Z,99830.66
2023-02-11T17:59:12.073Z,99832.41
2023-02-11T18:01:39.479Z,99824.38
2023-02-11T18:04:06.918Z,99831.63
2023-02-11T18:06:33.964Z,99824.38
2023-02-11T18:09:04.506Z,99826.19
2023-02-11T18:11:32.594Z,99827.97
2023-02-11T18:14:00.272Z,99831.63
2023-02-11T18:16:28.951Z,99828.06
2023-02-11T18:18:57.055Z,99837.81
2023-02-11T18:21:24.031Z,99829.84
2023-02-11T18:23:51.205Z,99833.50
2023-02-11T18:26:19.192Z,99838.84
2023-02-11T18:28:46.335Z,99838.78
2023-02-11T18:31:13.950Z,99835.22
2023-02-11T18:33:41.431Z,99841.44
2023-02-11T18:36:09.762Z,99845.16
2023-02-11T18:38:36.965Z,99845.09
2023-02-11T18:41:03.878Z,99848.66
2023-02-11T18:43:33.587Z,99847.72
2023-02-11T18:46:01.354Z,99848.66
2023-02-11T18:48:28.571Z,99846.94
2023-02-11T18:50:55.576Z,99838.84
2023-02-11T18:53:22.754Z,99850.56
2023-02-11T18:55:49.584Z,99848.91
2023-02-11T18:58:16.858Z,99836.28
2023-02-11T19:00:45.976Z,99840.00
2023-02-11T19:03:13.089Z,99853.31
2023-02-11T19:05:43.306Z,99855.06
2023-02-11T19:08:10.818Z,99863.94
2023-02-11T19:10:45.114Z,99856.88
2023-02-11T19:13:12.429Z,99863.31
2023-02-11T19:15:43.166Z,99860.59
2023-02-11T19:18:10.850Z,99855.56
2023-02-11T19:20:42.085Z,99869.63
2023-02-11T19:23:09.302Z,99867.88
2023-02-11T19:25:36.138Z,99872.31
2023-02-11T19:28:03.580Z,99870.59
2023-02-11T19:30:30.707Z,99882.22
2023-02-11T19:32:57.988Z,99877.88
2023-02-11T19:35:25.056Z,99875.22
2023-02-11T19:37:52.253Z,99877.88
2023-02-11T19:40:21.199Z,99881.25
2023-02-11T19:42:48.312Z,99882.38
2023-02-11T19:45:15.207Z,99884.97
2023-02-11T19:47:42.307Z,99869.69
2023-02-11T19:50:09.415Z,99874.28
2023-02-11T19:52:40.526Z,99873.38
2023-02-11T19:55:08.127Z,99860.06
2023-02-11T19:57:36.484Z,99861.09
2023-02-11T20:00:03.840Z,99866.44
2023-02-11T20:02:31.303Z,99874.41
2023-02-11T20:04:58.156Z,99872.66
2023-02-11T20:07:25.308Z,99877.00
2023-02-11T20:09:53.750Z,99880.56
2023-02-11T20:12:20.858Z,99874.28
2023-02-11T20:14:47.630Z,99876.13
2023-02-11T20:17:14.785Z,99880.38
2023-02-11T20:19:41.583Z,99870.47
2023-02-11T20:22:09.158Z,99874.09
2023-02-11T20:24:36.104Z,99883.88
2023-02-11T20:27:03.198Z,99886.38
2023-02-11T20:29:31.804Z,99889.09
2023-02-11T20:31:59.091Z,99881.81
2023-02-11T20:34:25.977Z,99883.75
2023-02-11T20:36:53.513Z,99886.31
2023-02-11T20:39:22.375Z,99901.41
2023-02-11T20:41:49.852Z,99893.44
2023-02-11T20:44:16.621Z,99887.00
2023-02-11T20:46:48.027Z,99894.97
2023-02-11T20:49:16.589Z,99899.47
2023-02-11T20:51:43.841Z,99902.91
2023-02-11T20:54:14.620Z,99895.81
2023-02-11T20:56:41.842Z,99905.66
2023-02-11T20:59:08.817Z,99912.91
2023-02-11T21:01:37.815Z,99912.69
2023-02-11T21:04:06.533Z,99907.22
2023-02-11T21:06:38.459Z,99911.66
2023-02-11T21:09:06.018Z,99910.88
2023-02-11T21:11:33.226Z,99919.72
2023-02-11T21:14:01.917Z,99917.75
2023-02-11T21:16:29.115Z,99920.41
2023-02-11T21:18:56.075Z,99931.06
2023-02-11T21:21:23.628Z,99940.13
2023-02-11T21:23:50.402Z,99939.03
2023-02-11T21:26:17.960Z,99932.72
2023-02-11T21:28:44.798Z,99924.94
2023-02-11T21:31:23.736Z,99935.72
2023-02-11T21:33:50.717Z,99937.50
2023-02-11T21:36:17.898Z,99948.09
2023-02-11T21:38:44.856Z,99946.22
2023-02-11T21:41:12.025Z,99950.72
2023-02-11T21:43:38.931Z,99954.25
2023-02-11T21:46:10.546Z,99958.63
2023-02-11T21:48:37.541Z,99963.19
2023-02-11T21:51:06.365Z,99963.03
2023-02-11T21:53:33.446Z,99966.72
2023-02-11T21:56:08.556Z,99979.09
2023-02-11T21:58:35.848Z,99978.28
2023-02-11T22:01:10.611Z,99978.22
2023-02-11T22:03:37.499Z,99986.16
2023-02-11T22:06:12.230Z,99991.38
2023-02-11T22:08:39.296Z,99994.97
2023-02-11T22:11:07.661Z,99993.09
2023-02-11T22:13:34.505Z,99990.63
2023-02-11T22:16:02.742Z,99995.94
2023-02-11T22:18:30.396Z,99995.94
2023-02-11T22:21:06.154Z,99994.22
2023-02-11T22:23:33.059Z,99995.03
2023-02-11T22:26:03.825Z,100000.22
2023-02-11T22:28:30.675Z,100001.28
2023-02-11T22:30:58.110Z,100007.28
2023-02-11T22:33:25.646Z,100012.56
2023-02-11T22:36:04.072Z,100015.34
2023-02-11T22:38:31.694Z,100012.63
2023-02-11T22:40:59.398Z,100016.16
2023-02-11T22:43:27.460Z,100016.97
2023-02-11T22:45:56.628Z,100013.25
2023-02-11T22:48:23.645Z,100021.63
2023-02-11T22:50:50.751Z,100026.00
2023-02-11T22:53:17.512Z,100027.63
2023-02-11T22:55:44.706Z,100020.44
2023-02-11T22:58:11.638Z,100016.97
2023-02-11T23:00:40.362Z,100021.41
2023-02-11T23:03:20.230Z,100018.66
2023-02-11T23:05:54.560Z,100027.63
2023-02-11T23:08:21.635Z,100030.13
2023-02-11T23:10:49.455Z,100019.47
2023-02-11T23:13:16.263Z,100028.38
2023-02-11T23:15:44.219Z,100020.41
2023-02-11T23:18:11.415Z,100022.22
2023-02-11T23:20:39.780Z,100019.41
2023-02-11T23:23:06.605Z,100031.00
2023-02-11T23:25:33.735Z,100031.69
2023-02-11T23:28:01.157Z,100030.81
2023-02-11T23:30:28.423Z,100027.28
2023-02-11T23:32:55.396Z,100028.03
2023-02-11T23:35:23.217Z,100036.88
2023-02-11T23:37:50.395Z,100037.22
2023-02-11T23:40:18.187Z,100044.03
2023-02-11T23:42:45.756Z,100044.91
2023-02-11T23:45:13.057Z,100041.47
2023-02-11T23:47:41.050Z,100048.38
2023-02-11T23:50:09.355Z,100050.25
2023-02-11T23:52:36.136Z,100047.75
2023-02-11T23:55:03.395Z,100047.63
2023-02-11T23:57:32.572Z,100046.81
2023-02-11T23:59:59.672Z,100055.59
